createdAt,value
2023-02-06T00:01:18.766Z,14.13
2023-02-06T00:03:45.664Z,13.83
2023-02-06T00:06:12.533Z,14.90
2023-02-06T00:08:39.808Z,15.40
2023-02-06T00:11:08.806Z,14.07
2023-02-06T00:13:36.618Z,13.80
2023-02-06T00:16:04.786Z,13.27
2023-02-06T00:18:31.992Z,13.60
2023-02-06T00:20:58.812Z,13.03
2023-02-06T00:23:25.651Z,14.13
2023-02-06T00:25:52.503Z,13.50
2023-02-06T00:28:19.356Z,13.40
2023-02-06T00:30:47.625Z,12.47
2023-02-06T00:33:14.859Z,13.13
2023-02-06T00:35:44.412Z,13.07
2023-02-06T00:38:11.866Z,12.53
2023-02-06T00:40:38.955Z,12.97
2023-02-06T00:43:05.959Z,12.97
2023-02-06T00:45:33.869Z,12.40
2023-02-06T00:48:01.286Z,13.07
2023-02-06T00:50:28.314Z,13.00
2023-02-06T00:52:55.240Z,13.40
2023-02-06T00:55:22.291Z,12.83
2023-02-06T00:57:49.215Z,12.93
2023-02-06T01:00:16.346Z,13.70
2023-02-06T01:02:46.028Z,13.60
2023-02-06T01:05:12.963Z,14.63
2023-02-06T01:07:40.622Z,12.87
2023-02-06T01:10:26.350Z,13.23
2023-02-06T01:12:53.642Z,14.00
2023-02-06T01:15:20.691Z,15.00
2023-02-06T01:17:47.594Z,14.03
2023-02-06T01:20:14.857Z,13.70
2023-02-06T01:22:42.135Z,13.53
2023-02-06T01:25:09.547Z,13.87
2023-02-06T01:27:38.065Z,14.57
2023-02-06T01:30:07.312Z,14.10
2023-02-06T01:32:41.760Z,14.37
2023-02-06T01:35:10.645Z,14.00
2023-02-06T01:37:38.252Z,13.77
2023-02-06T01:40:07.754Z,14.30
2023-02-06T01:42:36.511Z,15.50
2023-02-06T01:45:21.573Z,14.97
2023-02-06T01:47:52.357Z,14.10
2023-02-06T01:50:19.343Z,13.40
2023-02-06T01:52:47.444Z,14.20
2023-02-06T01:55:14.606Z,14.00
2023-02-06T01:57:42.089Z,13.90
2023-02-06T02:02:59.460Z,14.27
2023-02-06T02:05:26.419Z,14.70
2023-02-06T02:08:01.507Z,13.63
2023-02-06T02:10:32.078Z,14.30
2023-02-06T02:12:59.220Z,13.40
2023-02-06T02:15:39.565Z,14.27
2023-02-06T02:18:26.686Z,14.90
2023-02-06T02:21:13.898Z,14.37
2023-02-06T02:24:24.406Z,14.67
2023-02-06T02:27:09.733Z,14.10
2023-02-06T02:30:07.654Z,13.47
2023-02-06T02:33:05.582Z,13.33
2023-02-06T02:35:51.199Z,13.30
2023-02-06T02:38:27.246Z,14.07
2023-02-06T02:41:20.788Z,13.95
2023-02-06T02:44:09.604Z,14.33
2023-02-06T02:46:41.368Z,14.10
2023-02-06T02:49:13.532Z,14.03
2023-02-06T02:51:41.488Z,15.00
2023-02-06T02:54:09.216Z,14.77
2023-02-06T02:56:36.404Z,14.30
2023-02-06T02:59:32.672Z,14.67
2023-02-06T03:02:25.637Z,14.77
2023-02-06T03:05:00.551Z,14.70
2023-02-06T03:07:53.906Z,15.73
2023-02-06T03:10:30.373Z,14.97
2023-02-06T03:13:26.995Z,16.10
2023-02-06T03:16:04.236Z,16.00
2023-02-06T03:18:43.381Z,15.20
2023-02-06T03:21:15.515Z,15.10
2023-02-06T03:23:45.519Z,14.17
2023-02-06T03:26:16.576Z,14.93
2023-02-06T03:28:49.314Z,15.27
2023-02-06T03:31:25.458Z,14.93
2023-02-06T03:33:59.864Z,14.95
2023-02-06T03:36:26.763Z,14.53
2023-02-06T03:38:54.105Z,14.73
2023-02-06T03:41:26.121Z,14.50
2023-02-06T03:43:54.304Z,14.50
2023-02-06T03:46:24.403Z,14.63
2023-02-06T03:48:57.341Z,13.67
2023-02-06T03:51:39.467Z,15.03
2023-02-06T03:54:08.018Z,14.40
2023-02-06T03:56:45.330Z,14.70
2023-02-06T03:59:12.242Z,15.40
2023-02-06T04:01:50.535Z,14.60
2023-02-06T04:04:25.070Z,14.93
2023-02-06T04:06:51.918Z,15.03
2023-02-06T04:09:18.735Z,15.00
2023-02-06T04:11:45.605Z,14.33
2023-02-06T04:14:12.442Z,13.70
2023-02-06T04:16:39.299Z,15.00
2023-02-06T04:19:06.264Z,15.20
2023-02-06T04:21:36.239Z,15.03
2023-02-06T04:24:03.101Z,14.70
2023-02-06T04:26:29.990Z,15.33
2023-02-06T04:28:56.919Z,15.33
2023-02-06T04:31:23.800Z,16.10
2023-02-06T04:33:51.400Z,15.10
2023-02-06T04:36:18.293Z,14.40
2023-02-06T04:38:45.117Z,15.17
2023-02-06T04:41:12.115Z,14.93
2023-02-06T04:43:39.031Z,14.77
2023-02-06T04:46:06.669Z,15.17
2023-02-06T04:48:33.811Z,15.20
2023-02-06T04:51:00.619Z,16.10
2023-02-06T04:53:27.441Z,15.13
2023-02-06T04:55:56.589Z,16.70
2023-02-06T04:58:23.529Z,16.47
2023-02-06T05:00:50.882Z,14.33
2023-02-06T05:03:17.769Z,15.37
2023-02-06T05:05:45.114Z,15.40
2023-02-06T05:08:12.189Z,15.67
2023-02-06T05:10:39.171Z,14.50
2023-02-06T05:13:06.032Z,15.40
2023-02-06T05:15:33.334Z,15.30
2023-02-06T05:18:00.515Z,15.00
2023-02-06T05:20:29.131Z,15.00
2023-02-06T05:22:56.005Z,15.53
2023-02-06T05:25:23.404Z,15.63
2023-02-06T05:27:51.537Z,15.93
2023-02-06T05:30:19.295Z,15.53
2023-02-06T05:32:46.266Z,15.20
2023-02-06T05:35:13.197Z,14.83
2023-02-06T05:37:40.280Z,15.83
2023-02-06T05:40:08.542Z,14.87
2023-02-06T05:42:36.085Z,15.83
2023-02-06T05:45:04.352Z,15.70
2023-02-06T05:47:31.659Z,15.57
2023-02-06T05:49:58.774Z,16.17
2023-02-06T05:52:25.684Z,16.00
2023-02-06T05:54:52.857Z,15.77
2023-02-06T05:57:19.676Z,15.97
2023-02-06T05:59:46.953Z,15.97
2023-02-06T06:02:14.000Z,15.50
2023-02-06T06:04:40.941Z,15.90
2023-02-06T06:07:07.993Z,16.50
2023-02-06T06:09:35.816Z,15.87
2023-02-06T06:12:03.425Z,16.23
2023-02-06T06:14:35.307Z,16.23
2023-02-06T06:17:02.569Z,17.27
2023-02-06T06:19:29.510Z,15.73
2023-02-06T06:21:58.268Z,15.27
2023-02-06T06:24:26.453Z,17.33
2023-02-06T06:26:53.471Z,17.80
2023-02-06T06:29:20.506Z,17.63
2023-02-06T06:31:49.043Z,17.27
2023-02-06T06:34:34.957Z,18.03
2023-02-06T06:37:02.003Z,16.57
2023-02-06T06:39:28.915Z,15.23
2023-02-06T06:41:55.956Z,15.70
2023-02-06T06:44:24.799Z,16.00
2023-02-06T06:46:52.128Z,15.70
2023-02-06T06:49:19.186Z,16.73
2023-02-06T06:51:46.286Z,14.77
2023-02-06T06:54:13.255Z,14.60
2023-02-06T06:56:41.565Z,15.03
2023-02-06T06:59:09.148Z,13.73
2023-02-06T07:01:36.294Z,15.50
2023-02-06T07:04:03.260Z,15.27
2023-02-06T07:06:30.465Z,16.13
2023-02-06T07:08:57.934Z,15.43
2023-02-06T07:11:26.387Z,14.73
2023-02-06T07:13:54.204Z,16.27
2023-02-06T07:16:22.190Z,13.70
2023-02-06T07:18:49.315Z,15.90
2023-02-06T07:21:17.254Z,16.50
2023-02-06T07:23:45.235Z,15.53
2023-02-06T07:26:13.021Z,14.47
2023-02-06T07:28:40.826Z,15.63
2023-02-06T07:31:11.087Z,15.97
2023-02-06T07:33:38.026Z,15.67
2023-02-06T07:36:05.674Z,15.07
2023-02-06T07:38:32.793Z,16.43
2023-02-06T07:41:05.026Z,16.47
2023-02-06T07:43:32.789Z,15.87
2023-02-06T07:46:05.161Z,17.80
2023-02-06T07:48:32.341Z,16.67
2023-02-06T07:51:06.837Z,15.87
2023-02-06T07:53:34.797Z,15.90
2023-02-06T07:56:02.579Z,15.67
2023-02-06T07:58:30.186Z,16.23
2023-02-06T08:01:03.023Z,16.37
2023-02-06T08:03:49.771Z,14.00
2023-02-06T08:08:45.660Z,14.77
2023-02-06T08:11:15.502Z,15.17
2023-02-06T08:13:43.418Z,14.60
2023-02-06T08:16:19.650Z,14.07
2023-02-06T08:23:44.163Z,15.40
2023-02-06T08:26:18.078Z,14.83
2023-02-06T08:28:47.789Z,14.40
2023-02-06T08:34:05.776Z,15.63
2023-02-06T08:36:34.023Z,15.20
2023-02-06T08:39:09.492Z,17.43
2023-02-06T08:41:40.543Z,17.83
2023-02-06T08:44:12.433Z,19.55
2023-02-06T08:46:40.026Z,18.75
2023-02-06T08:49:27.447Z,17.40
2023-02-06T08:51:56.702Z,22.92
2023-02-06T08:54:24.666Z,18.70
2023-02-06T08:56:53.025Z,25.38
2023-02-06T08:59:20.968Z,14.85
2023-02-06T09:01:50.429Z,14.98
2023-02-06T09:04:18.039Z,16.80
2023-02-06T09:06:49.612Z,15.63
2023-02-06T09:09:17.025Z,16.88
2023-02-06T09:11:44.175Z,17.13
2023-02-06T09:14:15.328Z,14.30
2023-02-06T09:16:43.558Z,18.23
2023-02-06T09:19:11.692Z,17.00
2023-02-06T09:21:39.139Z,16.10
2023-02-06T09:24:13.198Z,12.63
2023-02-06T09:26:58.179Z,15.35
2023-02-06T09:29:29.377Z,12.95
2023-02-06T09:31:57.721Z,16.48
2023-02-06T09:34:26.333Z,15.77
2023-02-06T09:36:58.066Z,18.45
2023-02-06T09:39:25.956Z,13.23
2023-02-06T09:42:06.265Z,13.77
2023-02-06T09:44:41.942Z,14.10
2023-02-06T09:47:27.939Z,19.77
2023-02-06T09:50:03.907Z,21.95
2023-02-06T09:52:41.614Z,16.33
2023-02-06T09:55:37.272Z,13.85
2023-02-06T09:58:32.047Z,14.43
2023-02-06T10:01:08.560Z,17.30
2023-02-06T10:06:21.615Z,14.77
2023-02-06T10:09:19.858Z,24.02
2023-02-06T10:11:54.759Z,17.65
2023-02-06T10:14:33.332Z,19.38
2023-02-06T10:17:12.731Z,18.85
2023-02-06T10:20:14.084Z,17.85
2023-02-06T10:22:50.519Z,19.15
2023-02-06T10:25:42.093Z,16.13
2023-02-06T10:28:27.412Z,14.05
2023-02-06T10:31:30.911Z,14.35
2023-02-06T10:34:29.713Z,15.80
2023-02-06T10:37:12.366Z,16.40
2023-02-06T10:40:03.137Z,14.75
2023-02-06T10:42:39.353Z,18.92
2023-02-06T10:45:43.510Z,14.68
2023-02-06T10:48:31.781Z,14.23
2023-02-06T10:51:26.725Z,13.95
2023-02-06T10:53:58.462Z,14.43
2023-02-06T10:56:32.310Z,15.30
2023-02-06T10:59:24.311Z,15.80
2023-02-06T11:02:15.081Z,15.82
2023-02-06T11:04:53.290Z,15.70
2023-02-06T11:07:47.350Z,15.48
2023-02-06T11:10:17.917Z,15.38
2023-02-06T11:12:51.813Z,15.40
2023-02-06T11:15:23.828Z,16.92
2023-02-06T11:17:53.120Z,16.27
2023-02-06T11:20:30.825Z,16.33
2023-02-06T11:23:13.484Z,15.80
2023-02-06T11:25:45.521Z,17.02
2023-02-06T11:28:17.547Z,16.95
2023-02-06T11:30:57.635Z,16.58
2023-02-06T11:33:57.119Z,16.30
2023-02-06T11:36:34.650Z,17.90
2023-02-06T11:39:12.009Z,17.90
2023-02-06T11:41:39.008Z,14.68
2023-02-06T11:44:06.912Z,16.95
2023-02-06T11:46:36.581Z,16.30
2023-02-06T11:49:27.246Z,17.58
2023-02-06T11:51:57.467Z,17.52
2023-02-06T11:54:48.555Z,17.75
2023-02-06T11:57:26.802Z,21.38
2023-02-06T11:59:58.522Z,20.10
2023-02-06T12:02:35.461Z,20.27
2023-02-06T12:05:14.881Z,21.83
2023-02-06T12:08:16.818Z,19.95
2023-02-06T12:10:58.616Z,18.60
2023-02-06T12:13:33.945Z,18.05
2023-02-06T12:16:06.421Z,15.68
2023-02-06T12:18:44.349Z,19.85
2023-02-06T12:21:28.690Z,23.67
2023-02-06T12:24:06.193Z,22.20
2023-02-06T12:26:38.609Z,20.73
2023-02-06T12:29:06.250Z,17.73
2023-02-06T12:32:10.363Z,20.80
2023-02-06T12:35:16.260Z,19.75
2023-02-06T12:37:49.284Z,18.45
2023-02-06T12:40:40.488Z,20.10
2023-02-06T12:43:14.529Z,20.88
2023-02-06T12:46:04.614Z,20.40
2023-02-06T12:48:47.599Z,19.60
2023-02-06T12:51:25.171Z,22.02
2023-02-06T12:54:17.611Z,18.52
2023-02-06T12:56:49.540Z,20.17
2023-02-06T12:59:57.079Z,18.42
2023-02-06T13:02:47.604Z,18.40
2023-02-06T13:05:36.052Z,16.90
2023-02-06T13:08:39.596Z,16.25
2023-02-06T13:11:14.965Z,16.55
2023-02-06T13:13:42.575Z,18.98
2023-02-06T13:16:11.066Z,19.95
2023-02-06T13:18:50.921Z,17.63
2023-02-06T13:21:19.472Z,16.95
2023-02-06T13:24:01.822Z,17.63
2023-02-06T13:26:51.960Z,17.20
2023-02-06T13:29:23.142Z,22.63
2023-02-06T13:31:50.159Z,16.88
2023-02-06T13:34:18.335Z,14.93
2023-02-06T13:36:50.359Z,15.57
2023-02-06T13:39:25.586Z,15.73
2023-02-06T13:41:53.027Z,16.17
2023-02-06T13:44:33.773Z,16.15
2023-02-06T13:47:00.813Z,14.93
2023-02-06T13:50:07.551Z,15.18
2023-02-06T13:52:48.394Z,14.68
2023-02-06T13:55:37.743Z,14.73
2023-02-06T13:58:31.003Z,15.15
2023-02-06T14:01:00.093Z,15.65
2023-02-06T14:03:36.272Z,15.95
2023-02-06T14:06:40.387Z,15.10
2023-02-06T14:09:44.083Z,14.45
2023-02-06T14:12:35.998Z,14.32
2023-02-06T14:15:26.894Z,13.93
2023-02-06T14:18:44.235Z,14.77
2023-02-06T14:21:48.584Z,14.43
2023-02-06T14:24:54.130Z,16.00
2023-02-06T14:27:52.930Z,14.52
2023-02-06T14:30:44.925Z,14.23
2023-02-06T14:33:30.688Z,15.80
2023-02-06T14:36:07.116Z,15.15
2023-02-06T14:41:19.730Z,14.18
2023-02-06T14:43:49.442Z,15.02
2023-02-06T14:46:20.105Z,15.50
2023-02-06T14:48:56.003Z,14.73
2023-02-06T14:51:39.913Z,14.93
2023-02-06T14:54:29.868Z,15.23
2023-02-06T14:57:03.504Z,15.85
2023-02-06T14:59:32.346Z,14.52
2023-02-06T15:02:14.056Z,14.05
2023-02-06T15:04:48.116Z,14.05
2023-02-06T15:07:34.697Z,13.38
2023-02-06T15:10:29.821Z,14.40
2023-02-06T15:12:58.077Z,14.13
2023-02-06T15:15:32.921Z,13.48
2023-02-06T15:18:17.972Z,14.05
2023-02-06T15:20:52.126Z,13.93
2023-02-06T15:23:42.817Z,13.50
2023-02-06T15:26:54.573Z,13.77
2023-02-06T15:29:27.960Z,14.63
2023-02-06T15:32:01.178Z,15.05
2023-02-06T15:34:28.404Z,14.38
2023-02-06T15:36:55.589Z,14.05
2023-02-06T15:39:22.956Z,15.52
2023-02-06T15:41:52.140Z,15.80
2023-02-06T15:44:22.255Z,15.38
2023-02-06T15:46:51.279Z,15.93
2023-02-06T15:49:32.264Z,14.65
2023-02-06T15:52:02.410Z,14.68
2023-02-06T15:54:32.370Z,15.27
2023-02-06T15:57:36.670Z,15.85
2023-02-06T16:00:09.837Z,16.85
2023-02-06T16:02:47.249Z,15.40
2023-02-06T16:05:32.901Z,16.20
2023-02-06T16:08:02.346Z,15.85
2023-02-06T16:10:36.424Z,15.35
2023-02-06T16:13:11.311Z,15.65
2023-02-06T16:15:40.316Z,16.83
2023-02-06T16:18:19.948Z,16.13
2023-02-06T16:20:47.184Z,16.77
2023-02-06T16:23:25.909Z,16.75
2023-02-06T16:26:13.427Z,16.58
2023-02-06T16:29:06.715Z,17.75
2023-02-06T16:31:40.259Z,18.15
2023-02-06T16:34:34.752Z,18.20
2023-02-06T16:37:03.959Z,17.45
2023-02-06T16:39:30.742Z,17.73
2023-02-06T16:41:57.606Z,16.63
2023-02-06T16:44:36.099Z,17.60
2023-02-06T16:47:14.157Z,16.75
2023-02-06T16:49:41.377Z,16.58
2023-02-06T16:52:08.538Z,17.25
2023-02-06T16:54:36.017Z,19.33
2023-02-06T16:57:20.364Z,17.77
2023-02-06T16:59:47.473Z,16.63
2023-02-06T17:02:15.257Z,17.42
2023-02-06T17:04:42.303Z,17.27
2023-02-06T17:07:18.965Z,18.17
2023-02-06T17:09:46.707Z,17.58
2023-02-06T17:12:21.500Z,18.55
2023-02-06T17:14:48.951Z,17.80
2023-02-06T17:17:20.940Z,18.27
2023-02-06T17:19:48.827Z,19.65
2023-02-06T17:22:16.570Z,18.98
2023-02-06T17:24:51.580Z,19.85
2023-02-06T17:27:22.021Z,21.52
2023-02-06T17:29:53.183Z,22.23
2023-02-06T17:32:25.099Z,22.05
2023-02-06T17:34:55.677Z,21.20
2023-02-06T17:37:22.622Z,21.20
2023-02-06T17:39:53.060Z,20.90
2023-02-06T17:42:22.135Z,22.73
2023-02-06T17:44:49.370Z,22.20
2023-02-06T17:47:19.384Z,21.88
2023-02-06T17:49:47.426Z,20.55
2023-02-06T17:52:14.769Z,20.42
2023-02-06T17:54:42.165Z,21.10
2023-02-06T17:57:09.548Z,20.85
2023-02-06T17:59:36.498Z,21.67
2023-02-06T18:02:03.731Z,21.17
2023-02-06T18:04:31.588Z,18.45
2023-02-06T18:06:58.695Z,18.23
2023-02-06T18:09:26.133Z,17.63
2023-02-06T18:11:53.151Z,17.98
2023-02-06T18:14:21.491Z,20.98
2023-02-06T18:16:48.796Z,27.65
2023-02-06T18:19:19.120Z,19.67
2023-02-06T18:21:46.166Z,19.85
2023-02-06T18:24:13.983Z,20.38
2023-02-06T18:26:42.461Z,23.95
2023-02-06T18:29:09.570Z,24.02
2023-02-06T18:31:36.959Z,26.58
2023-02-06T18:34:08.202Z,29.08
2023-02-06T18:36:37.743Z,29.25
2023-02-06T18:39:06.623Z,33.88
2023-02-06T18:41:52.351Z,39.25
2023-02-06T18:44:20.833Z,45.67
2023-02-06T18:46:47.765Z,47.55
2023-02-06T18:49:14.681Z,40.55
2023-02-06T18:51:41.891Z,37.78
2023-02-06T18:54:10.107Z,34.55
2023-02-06T18:56:38.631Z,34.10
2023-02-06T18:59:06.188Z,30.45
2023-02-06T19:01:33.579Z,30.80
2023-02-06T19:04:01.013Z,31.45
2023-02-06T19:06:35.524Z,32.10
2023-02-06T19:09:07.349Z,29.88
2023-02-06T19:11:36.078Z,31.02
2023-02-06T19:14:04.572Z,29.80
2023-02-06T19:16:32.748Z,30.52
2023-02-06T19:19:01.769Z,31.48
2023-02-06T19:21:28.595Z,33.57
2023-02-06T19:23:58.071Z,30.27
2023-02-06T19:26:25.514Z,33.03
2023-02-06T19:28:53.015Z,34.23
2023-02-06T19:31:26.705Z,34.42
2023-02-06T19:34:00.427Z,34.55
2023-02-06T19:36:29.063Z,32.08
2023-02-06T19:38:58.763Z,34.47
2023-02-06T19:41:27.852Z,36.20
2023-02-06T19:43:56.282Z,39.30
2023-02-06T19:46:26.458Z,38.85
2023-02-06T19:48:54.757Z,35.30
2023-02-06T19:51:30.132Z,37.10
2023-02-06T19:53:58.919Z,35.83
2023-02-06T19:56:39.379Z,38.38
2023-02-06T19:59:20.905Z,37.15
2023-02-06T20:01:51.389Z,38.38
2023-02-06T20:04:20.234Z,35.70
2023-02-06T20:06:47.275Z,33.25
2023-02-06T20:09:15.833Z,30.80
2023-02-06T20:11:45.262Z,26.10
2023-02-06T20:14:12.683Z,25.70
2023-02-06T20:16:45.349Z,24.00
2023-02-06T20:19:16.732Z,23.60
2023-02-06T20:21:47.144Z,24.58
2023-02-06T20:24:18.641Z,24.88
2023-02-06T20:26:46.095Z,26.20
2023-02-06T20:29:25.188Z,26.98
2023-02-06T20:31:52.877Z,25.35
2023-02-06T20:34:20.385Z,27.33
2023-02-06T20:36:48.680Z,26.15
2023-02-06T20:39:16.345Z,23.73
2023-02-06T20:41:45.599Z,23.30
2023-02-06T20:44:14.464Z,23.23
2023-02-06T20:46:42.620Z,22.90
2023-02-06T20:49:19.954Z,23.60
2023-02-06T20:51:50.258Z,22.63
2023-02-06T20:54:18.985Z,20.40
2023-02-06T20:56:46.758Z,20.35
2023-02-06T20:59:16.000Z,21.55
2023-02-06T21:01:43.227Z,20.92
2023-02-06T21:04:12.575Z,21.77
2023-02-06T21:06:40.110Z,21.95
2023-02-06T21:09:25.907Z,21.60
2023-02-06T21:11:52.825Z,24.33
2023-02-06T21:14:39.132Z,24.23
2023-02-06T21:17:05.948Z,23.40
2023-02-06T21:19:32.853Z,24.02
2023-02-06T21:22:00.890Z,26.83
2023-02-06T21:24:27.817Z,25.17
2023-02-06T21:26:54.901Z,25.02
2023-02-06T21:29:23.612Z,27.98
2023-02-06T21:31:55.749Z,28.13
2023-02-06T21:34:27.796Z,27.08
2023-02-06T21:36:54.814Z,26.35
2023-02-06T21:39:29.076Z,26.33
2023-02-06T21:41:56.511Z,26.52
2023-02-06T21:44:24.716Z,26.08
2023-02-06T21:46:52.893Z,25.27
2023-02-06T21:49:21.261Z,25.67
2023-02-06T21:51:48.266Z,26.35
2023-02-06T21:54:15.120Z,23.93
2023-02-06T21:56:42.634Z,25.60
2023-02-06T21:59:13.302Z,25.35
2023-02-06T22:01:41.411Z,26.53
2023-02-06T22:04:10.053Z,25.92
2023-02-06T22:06:37.678Z,25.97
2023-02-06T22:09:07.863Z,26.55
2023-02-06T22:11:39.825Z,28.67
2023-02-06T22:14:11.230Z,26.70
2023-02-06T22:16:38.719Z,26.93
2023-02-06T22:19:09.188Z,27.13
2023-02-06T22:21:37.389Z,28.43
2023-02-06T22:24:06.739Z,27.03
2023-02-06T22:26:37.241Z,26.17
2023-02-06T22:29:05.938Z,29.13
2023-02-06T22:31:34.398Z,31.20
2023-02-06T22:34:02.123Z,29.33
2023-02-06T22:36:32.300Z,29.23
2023-02-06T22:39:01.864Z,27.67
2023-02-06T22:41:30.014Z,29.27
2023-02-06T22:43:56.958Z,33.80
2023-02-06T22:46:36.959Z,29.93
2023-02-06T22:49:05.858Z,29.57
2023-02-06T22:51:32.918Z,30.87
2023-02-06T22:54:01.568Z,31.03
2023-02-06T22:56:37.354Z,31.47
2023-02-06T22:59:07.406Z,31.25
2023-02-06T23:01:40.567Z,31.60
2023-02-06T23:04:11.460Z,34.50
2023-02-06T23:06:38.604Z,42.80
2023-02-06T23:09:08.307Z,43.23
2023-02-06T23:11:35.859Z,38.77
2023-02-06T23:14:05.228Z,43.10
2023-02-06T23:16:34.367Z,57.43
2023-02-06T23:19:04.705Z,58.90
2023-02-06T23:21:37.454Z,84.40
2023-02-06T23:24:06.424Z,75.63
2023-02-06T23:26:53.401Z,83.23
2023-02-06T23:29:21.364Z,76.73
2023-02-06T23:31:49.398Z,62.33
2023-02-06T23:34:18.278Z,67.60
2023-02-06T23:36:46.338Z,68.93
2023-02-06T23:39:13.257Z,67.13
2023-02-06T23:41:40.340Z,59.53
2023-02-06T23:44:08.504Z,67.83
2023-02-06T23:46:38.192Z,78.07
2023-02-06T23:49:06.428Z,73.67
2023-02-06T23:51:33.890Z,70.73
2023-02-06T23:54:01.090Z,75.90
2023-02-06T23:56:30.353Z,72.13
2023-02-06T23:58:59.136Z,74.07
